sensor_id;sensor_type;location;lat;lon;timestamp;temperature;humidity
18260;DHT22;9256;52.236;5.712;2024-02-14T00:01:22;7.70;99.90
18260;DHT22;9256;52.236;5.712;2024-02-14T00:03:49;7.70;99.90
18260;DHT22;9256;52.236;5.712;2024-02-14T00:06:16;7.70;99.90
18260;DHT22;9256;52.236;5.712;2024-02-14T00:08:48;7.70;99.90
18260;DHT22;9256;52.236;5.712;2024-02-14T00:11:16;7.70;99.90
18260;DHT22;9256;52.236;5.712;2024-02-14T00:13:47;7.70;99.90
18260;DHT22;9256;52.236;5.712;2024-02-14T00:16:15;7.80;99.90
18260;DHT22;9256;52.236;5.712;2024-02-14T00:18:48;7.80;99.90
18260;DHT22;9256;52.236;5.712;2024-02-14T00:21:24;7.80;99.90
18260;DHT22;9256;52.236;5.712;2024-02-14T00:23:57;7.80;99.90
18260;DHT22;9256;52.236;5.712;2024-02-14T00:26:27;7.80;99.90
18260;DHT22;9256;52.236;5.712;2024-02-14T00:28:55;7.90;99.90
18260;DHT22;9256;52.236;5.712;2024-02-14T00:31:22;7.90;99.90
18260;DHT22;9256;52.236;5.712;2024-02-14T00:33:51;7.90;99.90
18260;DHT22;9256;52.236;5.712;2024-02-14T00:36:20;7.90;99.90
18260;DHT22;9256;52.236;5.712;2024-02-14T00:38:48;7.90;99.90
18260;DHT22;9256;52.236;5.712;2024-02-14T00:41:15;7.90;99.90
18260;DHT22;9256;52.236;5.712;2024-02-14T00:43:42;7.90;99.90
18260;DHT22;9256;52.236;5.712;2024-02-14T00:46:15;7.90;99.90
18260;DHT22;9256;52.236;5.712;2024-02-14T00:48:43;7.90;99.90
18260;DHT22;9256;52.236;5.712;2024-02-14T00:51:12;7.90;99.90
18260;DHT22;9256;52.236;5.712;2024-02-14T00:53:39;8.00;99.90
18260;DHT22;9256;52.236;5.712;2024-02-14T00:56:09;8.00;99.90
18260;DHT22;9256;52.236;5.712;2024-02-14T00:58:39;8.00;99.90
18260;DHT22;9256;52.236;5.712;2024-02-14T01:01:06;8.00;99.90
18260;DHT22;9256;52.236;5.712;2024-02-14T01:03:35;8.00;99.90
18260;DHT22;9256;52.236;5.712;2024-02-14T01:06:02;8.00;99.90
18260;DHT22;9256;52.236;5.712;2024-02-14T01:08:34;8.00;99.90
18260;DHT22;9256;52.236;5.712;2024-02-14T01:11:02;8.10;99.90
18260;DHT22;9256;52.236;5.712;2024-02-14T01:13:30;8.00;99.90
18260;DHT22;9256;52.236;5.712;2024-02-14T01:16:05;8.10;99.90
18260;DHT22;9256;52.236;5.712;2024-02-14T01:18:37;8.10;99.90
18260;DHT22;9256;52.236;5.712;2024-02-14T01:21:09;8.10;99.90
18260;DHT22;9256;52.236;5.712;2024-02-14T01:23:38;8.10;99.90
18260;DHT22;9256;52.236;5.712;2024-02-14T01:26:05;8.20;99.90
18260;DHT22;9256;52.236;5.712;2024-02-14T01:28:35;8.20;99.90
18260;DHT22;9256;52.236;5.712;2024-02-14T01:31:08;8.20;99.90
18260;DHT22;9256;52.236;5.712;2024-02-14T01:33:52;8.20;99.90
18260;DHT22;9256;52.236;5.712;2024-02-14T01:36:20;8.30;99.90
18260;DHT22;9256;52.236;5.712;2024-02-14T01:38:56;8.30;99.90
18260;DHT22;9256;52.236;5.712;2024-02-14T01:41:35;8.30;99.90
18260;DHT22;9256;52.236;5.712;2024-02-14T01:44:06;8.30;99.90
18260;DHT22;9256;52.236;5.712;2024-02-14T01:46:36;8.30;99.90
18260;DHT22;9256;52.236;5.712;2024-02-14T01:49:05;8.40;99.90
18260;DHT22;9256;52.236;5.712;2024-02-14T01:51:35;8.40;99.90
18260;DHT22;9256;52.236;5.712;2024-02-14T01:54:04;8.40;99.90
18260;DHT22;9256;52.236;5.712;2024-02-14T01:56:33;8.40;99.90
18260;DHT22;9256;52.236;5.712;2024-02-14T01:59:02;8.40;99.90
18260;DHT22;9256;52.236;5.712;2024-02-14T02:01:32;8.60;99.90
18260;DHT22;9256;52.236;5.712;2024-02-14T02:04:09;8.50;99.90
18260;DHT22;9256;52.236;5.712;2024-02-14T02:06:39;8.50;99.90
18260;DHT22;9256;52.236;5.712;2024-02-14T02:09:09;8.50;99.90
18260;DHT22;9256;52.236;5.712;2024-02-14T02:11:46;8.60;99.90
18260;DHT22;9256;52.236;5.712;2024-02-14T02:14:27;8.60;99.90
18260;DHT22;9256;52.236;5.712;2024-02-14T02:16:55;8.60;99.90
18260;DHT22;9256;52.236;5.712;2024-02-14T02:19:24;8.60;99.90
18260;DHT22;9256;52.236;5.712;2024-02-14T02:21:54;8.70;99.90
18260;DHT22;9256;52.236;5.712;2024-02-14T02:24:23;8.70;99.90
18260;DHT22;9256;52.236;5.712;2024-02-14T02:26:55;8.70;99.90
18260;DHT22;9256;52.236;5.712;2024-02-14T02:29:39;8.80;99.90
18260;DHT22;9256;52.236;5.712;2024-02-14T02:32:06;8.80;99.90
18260;DHT22;9256;52.236;5.712;2024-02-14T02:34:39;8.80;99.90
18260;DHT22;9256;52.236;5.712;2024-02-14T02:37:07;8.80;99.90
18260;DHT22;9256;52.236;5.712;2024-02-14T02:39:39;8.90;99.90
18260;DHT22;9256;52.236;5.712;2024-02-14T02:42:08;9.00;99.90
18260;DHT22;9256;52.236;5.712;2024-02-14T02:44:42;8.90;99.90
18260;DHT22;9256;52.236;5.712;2024-02-14T02:47:12;8.90;99.90
18260;DHT22;9256;52.236;5.712;2024-02-14T02:49:39;8.90;99.90
18260;DHT22;9256;52.236;5.712;2024-02-14T02:52:09;9.00;99.90
18260;DHT22;9256;52.236;5.712;2024-02-14T02:54:42;9.00;99.90
18260;DHT22;9256;52.236;5.712;2024-02-14T02:57:14;9.00;99.90
18260;DHT22;9256;52.236;5.712;2024-02-14T02:59:42;9.10;99.90
18260;DHT22;9256;52.236;5.712;2024-02-14T03:02:14;9.00;99.90
18260;DHT22;9256;52.236;5.712;2024-02-14T03:04:41;9.00;99.90
18260;DHT22;9256;52.236;5.712;2024-02-14T03:07:10;9.10;99.90
18260;DHT22;9256;52.236;5.712;2024-02-14T03:09:39;9.10;99.90
18260;DHT22;9256;52.236;5.712;2024-02-14T03:12:06;9.00;99.90
18260;DHT22;9256;52.236;5.712;2024-02-14T03:14:37;9.10;99.90
18260;DHT22;9256;52.236;5.712;2024-02-14T03:17:09;9.10;99.90
18260;DHT22;9256;52.236;5.712;2024-02-14T03:19:36;9.10;99.90
18260;DHT22;9256;52.236;5.712;2024-02-14T03:22:11;9.10;99.90
18260;DHT22;9256;52.236;5.712;2024-02-14T03:24:40;9.10;99.90
18260;DHT22;9256;52.236;5.712;2024-02-14T03:27:12;9.20;99.90
18260;DHT22;9256;52.236;5.712;2024-02-14T03:29:51;9.20;99.90
18260;DHT22;9256;52.236;5.712;2024-02-14T03:32:23;9.10;99.90
18260;DHT22;9256;52.236;5.712;2024-02-14T03:34:53;9.20;99.90
18260;DHT22;9256;52.236;5.712;2024-02-14T03:37:25;9.10;99.90
18260;DHT22;9256;52.236;5.712;2024-02-14T03:39:56;9.10;99.90
18260;DHT22;9256;52.236;5.712;2024-02-14T03:42:23;9.20;99.90
18260;DHT22;9256;52.236;5.712;2024-02-14T03:44:52;9.10;99.90
18260;DHT22;9256;52.236;5.712;2024-02-14T03:47:27;9.20;99.90
18260;DHT22;9256;52.236;5.712;2024-02-14T03:49:56;9.20;99.90
18260;DHT22;9256;52.236;5.712;2024-02-14T03:52:30;9.20;99.90
18260;DHT22;9256;52.236;5.712;2024-02-14T03:55:00;9.30;99.90
18260;DHT22;9256;52.236;5.712;2024-02-14T03:57:28;9.30;99.90
18260;DHT22;9256;52.236;5.712;2024-02-14T03:59:55;9.20;99.90
18260;DHT22;9256;52.236;5.712;2024-02-14T04:02:28;9.30;99.90
18260;DHT22;9256;52.236;5.712;2024-02-14T04:05:07;9.30;99.90
18260;DHT22;9256;52.236;5.712;2024-02-14T04:07:34;9.30;99.90
18260;DHT22;9256;52.236;5.712;2024-02-14T04:10:06;9.40;99.90
18260;DHT22;9256;52.236;5.712;2024-02-14T04:12:34;9.50;99.90
18260;DHT22;9256;52.236;5.712;2024-02-14T04:15:01;9.40;99.90
18260;DHT22;9256;52.236;5.712;2024-02-14T04:17:30;9.50;99.90
18260;DHT22;9256;52.236;5.712;2024-02-14T04:20:00;9.40;99.90
18260;DHT22;9256;52.236;5.712;2024-02-14T04:22:30;9.50;99.90
18260;DHT22;9256;52.236;5.712;2024-02-14T04:25:03;9.60;99.90
18260;DHT22;9256;52.236;5.712;2024-02-14T04:27:44;9.60;99.90
18260;DHT22;9256;52.236;5.712;2024-02-14T04:30:15;9.60;99.90
18260;DHT22;9256;52.236;5.712;2024-02-14T04:32:45;9.60;99.90
18260;DHT22;9256;52.236;5.712;2024-02-14T04:35:20;9.60;99.90
18260;DHT22;9256;52.236;5.712;2024-02-14T04:37:47;9.70;99.90
18260;DHT22;9256;52.236;5.712;2024-02-14T04:40:20;9.70;99.90
18260;DHT22;9256;52.236;5.712;2024-02-14T04:42:47;9.70;99.90
18260;DHT22;9256;52.236;5.712;2024-02-14T04:45:15;9.80;99.90
18260;DHT22;9256;52.236;5.712;2024-02-14T04:47:45;9.80;99.90
18260;DHT22;9256;52.236;5.712;2024-02-14T04:50:17;9.80;99.90
18260;DHT22;9256;52.236;5.712;2024-02-14T04:52:50;9.90;99.90
18260;DHT22;9256;52.236;5.712;2024-02-14T04:55:21;9.80;99.90
18260;DHT22;9256;52.236;5.712;2024-02-14T04:57:49;9.80;99.90
18260;DHT22;9256;52.236;5.712;2024-02-14T05:00:24;9.90;99.90
18260;DHT22;9256;52.236;5.712;2024-02-14T05:02:54;9.80;99.90
18260;DHT22;9256;52.236;5.712;2024-02-14T05:05:24;9.80;99.90
18260;DHT22;9256;52.236;5.712;2024-02-14T05:08:00;9.90;99.90
18260;DHT22;9256;52.236;5.712;2024-02-14T05:10:29;9.90;99.90
18260;DHT22;9256;52.236;5.712;2024-02-14T05:12:56;9.90;99.90
18260;DHT22;9256;52.236;5.712;2024-02-14T05:15:26;10.00;99.90
18260;DHT22;9256;52.236;5.712;2024-02-14T05:17:56;9.90;99.90
18260;DHT22;9256;52.236;5.712;2024-02-14T05:20:25;9.90;99.90
18260;DHT22;9256;52.236;5.712;2024-02-14T05:23:03;9.90;99.90
18260;DHT22;9256;52.236;5.712;2024-02-14T05:25:32;10.00;99.90
18260;DHT22;9256;52.236;5.712;2024-02-14T05:28:02;9.90;99.90
18260;DHT22;9256;52.236;5.712;2024-02-14T05:30:36;9.90;99.90
18260;DHT22;9256;52.236;5.712;2024-02-14T05:33:14;10.00;99.90
18260;DHT22;9256;52.236;5.712;2024-02-14T05:35:47;9.90;99.90
18260;DHT22;9256;52.236;5.712;2024-02-14T05:38:20;9.90;99.90
18260;DHT22;9256;52.236;5.712;2024-02-14T05:40:56;9.90;99.90
18260;DHT22;9256;52.236;5.712;2024-02-14T05:43:25;10.00;99.90
18260;DHT22;9256;52.236;5.712;2024-02-14T05:45:56;10.00;99.90
18260;DHT22;9256;52.236;5.712;2024-02-14T05:48:26;10.00;99.90
18260;DHT22;9256;52.236;5.712;2024-02-14T05:50:57;10.00;99.90
18260;DHT22;9256;52.236;5.712;2024-02-14T05:53:26;10.00;99.90
18260;DHT22;9256;52.236;5.712;2024-02-14T05:56:00;10.00;99.90
18260;DHT22;9256;52.236;5.712;2024-02-14T05:58:27;10.00;99.90
18260;DHT22;9256;52.236;5.712;2024-02-14T06:00:56;10.00;99.90
18260;DHT22;9256;52.236;5.712;2024-02-14T06:03:26;10.10;99.90
18260;DHT22;9256;52.236;5.712;2024-02-14T06:06:12;10.00;99.90
18260;DHT22;9256;52.236;5.712;2024-02-14T06:08:42;10.10;99.90
18260;DHT22;9256;52.236;5.712;2024-02-14T06:11:13;10.00;99.90
18260;DHT22;9256;52.236;5.712;2024-02-14T06:13:46;10.10;99.90
18260;DHT22;9256;52.236;5.712;2024-02-14T06:16:16;10.00;99.90
18260;DHT22;9256;52.236;5.712;2024-02-14T06:18:45;10.00;99.90
18260;DHT22;9256;52.236;5.712;2024-02-14T06:21:12;10.10;99.90
18260;DHT22;9256;52.236;5.712;2024-02-14T06:23:39;10.00;99.90
18260;DHT22;9256;52.236;5.712;2024-02-14T06:26:08;10.00;99.90
18260;DHT22;9256;52.236;5.712;2024-02-14T06:28:36;10.10;99.90
18260;DHT22;9256;52.236;5.712;2024-02-14T06:31:04;10.10;99.90
18260;DHT22;9256;52.236;5.712;2024-02-14T06:33:32;10.10;99.90
18260;DHT22;9256;52.236;5.712;2024-02-14T06:35:59;10.10;99.90
18260;DHT22;9256;52.236;5.712;2024-02-14T06:38:33;10.10;99.90
18260;DHT22;9256;52.236;5.712;2024-02-14T06:41:02;10.10;99.90
18260;DHT22;9256;52.236;5.712;2024-02-14T06:43:29;10.10;99.90
18260;DHT22;9256;52.236;5.712;2024-02-14T06:46:10;10.10;99.90
18260;DHT22;9256;52.236;5.712;2024-02-14T06:48:40;10.10;99.90
18260;DHT22;9256;52.236;5.712;2024-02-14T06:51:07;10.10;99.90
18260;DHT22;9256;52.236;5.712;2024-02-14T06:53:36;10.10;99.90
18260;DHT22;9256;52.236;5.712;2024-02-14T06:56:08;10.20;99.90
18260;DHT22;9256;52.236;5.712;2024-02-14T06:58:37;10.10;99.90
18260;DHT22;9256;52.236;5.712;2024-02-14T07:01:07;10.10;99.90
18260;DHT22;9256;52.236;5.712;2024-02-14T07:03:43;10.20;99.90
18260;DHT22;9256;52.236;5.712;2024-02-14T07:06:12;10.20;99.90
18260;DHT22;9256;52.236;5.712;2024-02-14T07:08:52;10.10;99.90
18260;DHT22;9256;52.236;5.712;2024-02-14T07:11:21;10.10;99.90
18260;DHT22;9256;52.236;5.712;2024-02-14T07:13:51;10.20;99.90
18260;DHT22;9256;52.236;5.712;2024-02-14T07:16:24;10.20;99.90
18260;DHT22;9256;52.236;5.712;2024-02-14T07:18:54;10.20;99.90
18260;DHT22;9256;52.236;5.712;2024-02-14T07:21:22;10.20;99.90
18260;DHT22;9256;52.236;5.712;2024-02-14T07:23:50;10.20;99.90
18260;DHT22;9256;52.236;5.712;2024-02-14T07:26:20;10.30;99.90
18260;DHT22;9256;52.236;5.712;2024-02-14T07:28:49;10.20;99.90
18260;DHT22;9256;52.236;5.712;2024-02-14T07:31:35;10.20;99.90
18260;DHT22;9256;52.236;5.712;2024-02-14T07:34:05;10.30;99.90
18260;DHT22;9256;52.236;5.712;2024-02-14T07:36:37;10.20;99.90
18260;DHT22;9256;52.236;5.712;2024-02-14T07:39:08;10.30;99.90
18260;DHT22;9256;52.236;5.712;2024-02-14T07:41:41;10.30;99.90
18260;DHT22;9256;52.236;5.712;2024-02-14T07:44:13;10.20;99.90
18260;DHT22;9256;52.236;5.712;2024-02-14T07:46:50;10.30;99.90
18260;DHT22;9256;52.236;5.712;2024-02-14T07:49:17;10.20;99.90
18260;DHT22;9256;52.236;5.712;2024-02-14T07:51:49;10.20;99.90
18260;DHT22;9256;52.236;5.712;2024-02-14T07:54:16;10.20;99.90
18260;DHT22;9256;52.236;5.712;2024-02-14T07:56:46;10.20;99.90
18260;DHT22;9256;52.236;5.712;2024-02-14T07:59:13;10.20;99.90
18260;DHT22;9256;52.236;5.712;2024-02-14T08:01:48;10.30;99.90
18260;DHT22;9256;52.236;5.712;2024-02-14T08:04:17;10.20;99.90
18260;DHT22;9256;52.236;5.712;2024-02-14T08:06:47;10.30;99.90
18260;DHT22;9256;52.236;5.712;2024-02-14T08:09:14;10.40;99.90
18260;DHT22;9256;52.236;5.712;2024-02-14T08:11:49;10.40;99.90
18260;DHT22;9256;52.236;5.712;2024-02-14T08:14:23;10.40;99.90
18260;DHT22;9256;52.236;5.712;2024-02-14T08:16:52;10.50;99.90
18260;DHT22;9256;52.236;5.712;2024-02-14T08:19:19;10.50;99.90
18260;DHT22;9256;52.236;5.712;2024-02-14T08:21:51;10.40;99.90
18260;DHT22;9256;52.236;5.712;2024-02-14T08:24:26;10.50;99.90
18260;DHT22;9256;52.236;5.712;2024-02-14T08:26:55;10.40;99.90
18260;DHT22;9256;52.236;5.712;2024-02-14T08:29:24;10.40;99.90
18260;DHT22;9256;52.236;5.712;2024-02-14T08:31:54;10.40;99.90
18260;DHT22;9256;52.236;5.712;2024-02-14T08:34:22;10.40;99.90
18260;DHT22;9256;52.236;5.712;2024-02-14T08:37:03;10.40;99.90
18260;DHT22;9256;52.236;5.712;2024-02-14T08:39:34;10.40;99.90
18260;DHT22;9256;52.236;5.712;2024-02-14T08:42:02;10.50;99.90
18260;DHT22;9256;52.236;5.712;2024-02-14T08:44:35;10.50;99.90
18260;DHT22;9256;52.236;5.712;2024-02-14T08:47:14;10.40;99.90
18260;DHT22;9256;52.236;5.712;2024-02-14T08:49:43;10.50;99.90
18260;DHT22;9256;52.236;5.712;2024-02-14T08:52:10;10.60;99.90
18260;DHT22;9256;52.236;5.712;2024-02-14T08:54:39;10.60;99.90
18260;DHT22;9256;52.236;5.712;2024-02-14T08:57:09;10.60;99.90
18260;DHT22;9256;52.236;5.712;2024-02-14T08:59:36;10.60;99.90
18260;DHT22;9256;52.236;5.712;2024-02-14T09:02:10;10.60;99.90
18260;DHT22;9256;52.236;5.712;2024-02-14T09:04:37;10.60;99.90
18260;DHT22;9256;52.236;5.712;2024-02-14T09:07:04;10.60;99.90
18260;DHT22;9256;52.236;5.712;2024-02-14T09:09:31;10.60;99.90
18260;DHT22;9256;52.236;5.712;2024-02-14T09:12:01;10.60;99.90
18260;DHT22;9256;52.236;5.712;2024-02-14T09:14:28;10.70;99.90
18260;DHT22;9256;52.236;5.712;2024-02-14T09:17:00;10.60;99.90
18260;DHT22;9256;52.236;5.712;2024-02-14T09:19:28;10.50;99.90
18260;DHT22;9256;52.236;5.712;2024-02-14T09:21:55;10.60;99.90
18260;DHT22;9256;52.236;5.712;2024-02-14T09:24:25;10.70;99.90
18260;DHT22;9256;52.236;5.712;2024-02-14T09:26:54;10.70;99.90
18260;DHT22;9256;52.236;5.712;2024-02-14T09:29:23;10.70;99.90
18260;DHT22;9256;52.236;5.712;2024-02-14T09:31:54;10.80;99.90
18260;DHT22;9256;52.236;5.712;2024-02-14T09:34:23;10.70;99.90
18260;DHT22;9256;52.236;5.712;2024-02-14T09:36:54;10.70;99.90
18260;DHT22;9256;52.236;5.712;2024-02-14T09:39:22;10.80;99.90
18260;DHT22;9256;52.236;5.712;2024-02-14T09:41:52;10.80;99.90
18260;DHT22;9256;52.236;5.712;2024-02-14T09:44:24;10.70;99.90
18260;DHT22;9256;52.236;5.712;2024-02-14T09:46:56;10.80;99.90
18260;DHT22;9256;52.236;5.712;2024-02-14T09:49:23;10.80;99.90
18260;DHT22;9256;52.236;5.712;2024-02-14T09:51:52;10.80;99.90
18260;DHT22;9256;52.236;5.712;2024-02-14T09:54:19;10.80;99.90
18260;DHT22;9256;52.236;5.712;2024-02-14T09:56:49;10.70;99.90
18260;DHT22;9256;52.236;5.712;2024-02-14T09:59:19;10.80;99.90
18260;DHT22;9256;52.236;5.712;2024-02-14T10:01:48;10.80;99.90
18260;DHT22;9256;52.236;5.712;2024-02-14T10:04:17;10.80;99.90
18260;DHT22;9256;52.236;5.712;2024-02-14T10:06:46;10.70;99.90
18260;DHT22;9256;52.236;5.712;2024-02-14T10:09:20;10.80;99.90
18260;DHT22;9256;52.236;5.712;2024-02-14T10:11:47;10.90;99.90
18260;DHT22;9256;52.236;5.712;2024-02-14T10:14:14;10.90;99.90
18260;DHT22;9256;52.236;5.712;2024-02-14T10:16:41;10.90;99.90
18260;DHT22;9256;52.236;5.712;2024-02-14T10:19:15;10.90;99.90
18260;DHT22;9256;52.236;5.712;2024-02-14T10:21:41;10.90;99.90
18260;DHT22;9256;52.236;5.712;2024-02-14T10:24:08;10.80;99.90
18260;DHT22;9256;52.236;5.712;2024-02-14T10:26:37;10.80;99.90
18260;DHT22;9256;52.236;5.712;2024-02-14T10:29:06;10.90;99.90
18260;DHT22;9256;52.236;5.712;2024-02-14T10:31:40;11.00;99.90
18260;DHT22;9256;52.236;5.712;2024-02-14T10:34:08;10.90;99.90
18260;DHT22;9256;52.236;5.712;2024-02-14T10:36:36;11.00;99.90
18260;DHT22;9256;52.236;5.712;2024-02-14T10:39:07;11.00;99.90
18260;DHT22;9256;52.236;5.712;2024-02-14T10:41:37;11.10;99.90
18260;DHT22;9256;52.236;5.712;2024-02-14T10:44:05;11.10;99.90
18260;DHT22;9256;52.236;5.712;2024-02-14T10:46:33;11.10;99.90
18260;DHT22;9256;52.236;5.712;2024-02-14T10:49:05;11.20;99.90
18260;DHT22;9256;52.236;5.712;2024-02-14T10:51:34;11.20;99.90
18260;DHT22;9256;52.236;5.712;2024-02-14T10:54:06;11.20;99.90
18260;DHT22;9256;52.236;5.712;2024-02-14T10:56:39;11.20;99.90
18260;DHT22;9256;52.236;5.712;2024-02-14T10:59:08;11.20;99.90
18260;DHT22;9256;52.236;5.712;2024-02-14T11:01:37;11.10;99.90
18260;DHT22;9256;52.236;5.712;2024-02-14T11:04:05;11.20;99.90
18260;DHT22;9256;52.236;5.712;2024-02-14T11:06:33;11.20;99.90
18260;DHT22;9256;52.236;5.712;2024-02-14T11:09:12;11.20;99.90
18260;DHT22;9256;52.236;5.712;2024-02-14T11:11:42;11.10;99.90
18260;DHT22;9256;52.236;5.712;2024-02-14T11:14:10;11.20;99.90
18260;DHT22;9256;52.236;5.712;2024-02-14T11:16:38;11.20;99.90
18260;DHT22;9256;52.236;5.712;2024-02-14T11:19:06;11.20;99.90
18260;DHT22;9256;52.236;5.712;2024-02-14T11:21:42;11.30;99.90
18260;DHT22;9256;52.236;5.712;2024-02-14T11:24:26;11.30;99.90
18260;DHT22;9256;52.236;5.712;2024-02-14T11:27:11;11.40;99.90
18260;DHT22;9256;52.236;5.712;2024-02-14T11:29:40;11.30;99.90
18260;DHT22;9256;52.236;5.712;2024-02-14T11:32:08;11.50;99.90
18260;DHT22;9256;52.236;5.712;2024-02-14T11:34:35;11.50;99.90
18260;DHT22;9256;52.236;5.712;2024-02-14T11:37:03;11.50;99.90
18260;DHT22;9256;52.236;5.712;2024-02-14T11:39:33;11.50;99.90
18260;DHT22;9256;52.236;5.712;2024-02-14T11:42:16;11.40;99.90
18260;DHT22;9256;52.236;5.712;2024-02-14T11:44:46;11.50;99.90
18260;DHT22;9256;52.236;5.712;2024-02-14T11:47:13;11.50;99.90
18260;DHT22;9256;52.236;5.712;2024-02-14T11:49:40;11.60;99.90
18260;DHT22;9256;52.236;5.712;2024-02-14T11:52:09;11.50;99.90
18260;DHT22;9256;52.236;5.712;2024-02-14T11:54:39;11.50;99.90
18260;DHT22;9256;52.236;5.712;2024-02-14T11:57:06;11.50;99.90
18260;DHT22;9256;52.236;5.712;2024-02-14T11:59:35;11.50;99.90
18260;DHT22;9256;52.236;5.712;2024-02-14T12:02:03;11.50;99.90
18260;DHT22;9256;52.236;5.712;2024-02-14T12:04:31;11.40;99.90
18260;DHT22;9256;52.236;5.712;2024-02-14T12:07:04;11.50;99.90
18260;DHT22;9256;52.236;5.712;2024-02-14T12:09:31;11.50;99.90
18260;DHT22;9256;52.236;5.712;2024-02-14T12:12:00;11.60;99.90
18260;DHT22;9256;52.236;5.712;2024-02-14T12:14:43;11.50;99.90
18260;DHT22;9256;52.236;5.712;2024-02-14T12:17:18;11.60;99.90
18260;DHT22;9256;52.236;5.712;2024-02-14T12:19:46;11.60;99.90
18260;DHT22;9256;52.236;5.712;2024-02-14T12:22:15;11.60;99.90
18260;DHT22;9256;52.236;5.712;2024-02-14T12:24:48;11.60;99.90
18260;DHT22;9256;52.236;5.712;2024-02-14T12:27:22;11.70;99.90
18260;DHT22;9256;52.236;5.712;2024-02-14T12:29:51;11.70;99.90
18260;DHT22;9256;52.236;5.712;2024-02-14T12:32:18;11.60;99.90
18260;DHT22;9256;52.236;5.712;2024-02-14T12:34:45;11.70;99.90
18260;DHT22;9256;52.236;5.712;2024-02-14T12:37:12;11.70;99.90
18260;DHT22;9256;52.236;5.712;2024-02-14T12:39:41;11.70;99.90
18260;DHT22;9256;52.236;5.712;2024-02-14T12:42:08;11.70;99.90
18260;DHT22;9256;52.236;5.712;2024-02-14T12:44:40;11.70;99.90
18260;DHT22;9256;52.236;5.712;2024-02-14T12:47:17;11.70;99.90
18260;DHT22;9256;52.236;5.712;2024-02-14T12:49:47;11.80;99.90
18260;DHT22;9256;52.236;5.712;2024-02-14T12:52:15;11.70;99.90
18260;DHT22;9256;52.236;5.712;2024-02-14T12:54:43;11.70;99.90
18260;DHT22;9256;52.236;5.712;2024-02-14T12:57:14;11.70;99.90
18260;DHT22;9256;52.236;5.712;2024-02-14T12:59:54;11.80;99.90
18260;DHT22;9256;52.236;5.712;2024-02-14T13:02:29;11.70;99.90
18260;DHT22;9256;52.236;5.712;2024-02-14T13:04:58;11.70;99.90
18260;DHT22;9256;52.236;5.712;2024-02-14T13:07:35;11.70;99.90
18260;DHT22;9256;52.236;5.712;2024-02-14T13:10:07;11.70;99.90
18260;DHT22;9256;52.236;5.712;2024-02-14T13:12:39;11.70;99.90
18260;DHT22;9256;52.236;5.712;2024-02-14T13:15:13;11.70;99.90
18260;DHT22;9256;52.236;5.712;2024-02-14T13:17:42;11.70;99.90
18260;DHT22;9256;52.236;5.712;2024-02-14T13:20:12;11.70;99.90
18260;DHT22;9256;52.236;5.712;2024-02-14T13:22:46;11.70;99.90
18260;DHT22;9256;52.236;5.712;2024-02-14T13:25:14;11.60;99.90
18260;DHT22;9256;52.236;5.712;2024-02-14T13:27:43;11.70;99.90
18260;DHT22;9256;52.236;5.712;2024-02-14T13:30:16;11.70;99.90
18260;DHT22;9256;52.236;5.712;2024-02-14T13:32:50;11.80;99.90
18260;DHT22;9256;52.236;5.712;2024-02-14T13:35:21;11.80;99.90
18260;DHT22;9256;52.236;5.712;2024-02-14T13:37:55;11.80;99.90
18260;DHT22;9256;52.236;5.712;2024-02-14T13:40:26;11.80;99.90
18260;DHT22;9256;52.236;5.712;2024-02-14T13:42:54;11.80;99.90
18260;DHT22;9256;52.236;5.712;2024-02-14T13:45:41;11.70;99.90
18260;DHT22;9256;52.236;5.712;2024-02-14T13:48:19;11.80;99.90
18260;DHT22;9256;52.236;5.712;2024-02-14T13:50:46;11.70;99.90
18260;DHT22;9256;52.236;5.712;2024-02-14T13:53:15;11.80;99.90
18260;DHT22;9256;52.236;5.712;2024-02-14T13:55:45;11.90;99.90
18260;DHT22;9256;52.236;5.712;2024-02-14T13:58:14;12.00;99.90
18260;DHT22;9256;52.236;5.712;2024-02-14T14:00:42;11.90;99.90
18260;DHT22;9256;52.236;5.712;2024-02-14T14:03:09;11.90;99.90
18260;DHT22;9256;52.236;5.712;2024-02-14T14:05:38;11.90;99.90
18260;DHT22;9256;52.236;5.712;2024-02-14T14:08:05;11.80;99.90
18260;DHT22;9256;52.236;5.712;2024-02-14T14:10:38;11.80;99.90
18260;DHT22;9256;52.236;5.712;2024-02-14T14:13:06;11.90;99.90
18260;DHT22;9256;52.236;5.712;2024-02-14T14:15:35;11.80;99.90
18260;DHT22;9256;52.236;5.712;2024-02-14T14:18:05;11.80;99.90
18260;DHT22;9256;52.236;5.712;2024-02-14T14:20:34;11.90;99.90
18260;DHT22;9256;52.236;5.712;2024-02-14T14:23:02;11.80;99.90
18260;DHT22;9256;52.236;5.712;2024-02-14T14:25:30;11.80;99.90
18260;DHT22;9256;52.236;5.712;2024-02-14T14:28:04;11.80;99.90
18260;DHT22;9256;52.236;5.712;2024-02-14T14:30:37;11.80;99.90
18260;DHT22;9256;52.236;5.712;2024-02-14T14:33:07;11.80;99.90
18260;DHT22;9256;52.236;5.712;2024-02-14T14:35:36;11.90;99.90
18260;DHT22;9256;52.236;5.712;2024-02-14T14:38:06;11.80;99.90
18260;DHT22;9256;52.236;5.712;2024-02-14T14:40:33;11.80;99.90
18260;DHT22;9256;52.236;5.712;2024-02-14T14:43:00;11.90;99.90
18260;DHT22;9256;52.236;5.712;2024-02-14T14:45:29;11.90;99.90
18260;DHT22;9256;52.236;5.712;2024-02-14T14:48:01;11.90;99.90
18260;DHT22;9256;52.236;5.712;2024-02-14T14:50:28;11.90;99.90
18260;DHT22;9256;52.236;5.712;2024-02-14T14:52:56;12.00;99.90
18260;DHT22;9256;52.236;5.712;2024-02-14T14:55:52;11.90;99.90
18260;DHT22;9256;52.236;5.712;2024-02-14T14:58:21;11.90;99.90
18260;DHT22;9256;52.236;5.712;2024-02-14T15:00:54;12.00;99.90
18260;DHT22;9256;52.236;5.712;2024-02-14T15:03:21;11.90;99.90
18260;DHT22;9256;52.236;5.712;2024-02-14T15:05:49;11.90;99.90
18260;DHT22;9256;52.236;5.712;2024-02-14T15:08:18;12.00;99.90
18260;DHT22;9256;52.236;5.712;2024-02-14T15:10:52;11.90;99.90
18260;DHT22;9256;52.236;5.712;2024-02-14T15:13:20;12.00;99.90
18260;DHT22;9256;52.236;5.712;2024-02-14T15:15:49;12.00;99.90
18260;DHT22;9256;52.236;5.712;2024-02-14T15:18:22;12.00;99.90
18260;DHT22;9256;52.236;5.712;2024-02-14T15:20:49;11.90;99.90
18260;DHT22;9256;52.236;5.712;2024-02-14T15:23:16;12.00;99.90
18260;DHT22;9256;52.236;5.712;2024-02-14T15:25:43;12.00;99.90
18260;DHT22;9256;52.236;5.712;2024-02-14T15:28:14;12.10;99.90
18260;DHT22;9256;52.236;5.712;2024-02-14T15:30:47;12.10;99.90
18260;DHT22;9256;52.236;5.712;2024-02-14T15:33:31;12.10;99.90
18260;DHT22;9256;52.236;5.712;2024-02-14T15:35:58;12.00;99.90
18260;DHT22;9256;52.236;5.712;2024-02-14T15:38:25;12.10;99.90
18260;DHT22;9256;52.236;5.712;2024-02-14T15:40:53;12.00;99.90
18260;DHT22;9256;52.236;5.712;2024-02-14T15:43:24;12.00;99.90
18260;DHT22;9256;52.236;5.712;2024-02-14T15:46:04;12.10;99.90
18260;DHT22;9256;52.236;5.712;2024-02-14T15:48:31;12.20;99.90
18260;DHT22;9256;52.236;5.712;2024-02-14T15:51:02;12.20;99.90
18260;DHT22;9256;52.236;5.712;2024-02-14T15:53:55;12.10;99.90
18260;DHT22;9256;52.236;5.712;2024-02-14T15:56:25;12.20;99.90
18260;DHT22;9256;52.236;5.712;2024-02-14T15:59:09;12.10;99.90
18260;DHT22;9256;52.236;5.712;2024-02-14T16:01:42;12.20;99.90
18260;DHT22;9256;52.236;5.712;2024-02-14T16:04:29;12.20;99.90
18260;DHT22;9256;52.236;5.712;2024-02-14T16:06:56;12.20;99.90
18260;DHT22;9256;52.236;5.712;2024-02-14T16:09:24;12.20;99.90
18260;DHT22;9256;52.236;5.712;2024-02-14T16:11:54;12.10;99.90
18260;DHT22;9256;52.236;5.712;2024-02-14T16:14:24;12.20;99.90